createdAt,value
2022-12-17T00:01:00.333Z,100865.45
2022-12-17T00:03:29.175Z,100863.70
2022-12-17T00:05:57.474Z,100860.74
2022-12-17T00:08:25.780Z,100861.69
2022-12-17T00:10:53.986Z,100861.32
2022-12-17T00:13:23.273Z,100859.20
2022-12-17T00:15:53.123Z,100858.36
2022-12-17T00:18:22.607Z,100863.01
2022-12-17T00:21:00.547Z,100868.20
2022-12-17T00:23:28.558Z,100869.59
2022-12-17T00:25:57.090Z,100869.08
2022-12-17T00:28:25.020Z,100869.63
2022-12-17T00:30:53.719Z,100869.85
2022-12-17T00:33:21.888Z,100870.08
2022-12-17T00:35:54.984Z,100872.61
2022-12-17T00:38:24.453Z,100875.80
2022-12-17T00:40:53.592Z,100876.16
2022-12-17T00:43:22.093Z,100873.53
2022-12-17T00:45:51.010Z,100872.38
2022-12-17T00:48:20.436Z,100872.25
2022-12-17T00:50:49.015Z,100874.14
2022-12-17T00:53:17.217Z,100872.42
2022-12-17T00:55:45.576Z,100873.91
2022-12-17T00:58:13.823Z,100879.17
2022-12-17T01:00:42.953Z,100881.91
2022-12-17T01:03:13.524Z,100876.48
2022-12-17T01:05:41.721Z,100877.05
2022-12-17T01:08:13.132Z,100873.37
2022-12-17T01:10:41.804Z,100869.82
2022-12-17T01:13:16.833Z,100872.08
2022-12-17T01:15:45.327Z,100874.75
2022-12-17T01:18:20.710Z,100877.90
2022-12-17T01:20:48.944Z,100881.79
2022-12-17T01:23:17.002Z,100882.97
2022-12-17T01:25:56.631Z,100885.33
2022-12-17T01:28:26.301Z,100884.81
2022-12-17T01:30:57.230Z,100885.06
2022-12-17T01:33:25.329Z,100884.99
2022-12-17T01:35:58.302Z,100882.48
2022-12-17T01:38:26.293Z,100885.91
2022-12-17T01:40:54.278Z,100888.63
2022-12-17T01:43:37.549Z,100892.66
2022-12-17T01:46:06.077Z,100898.67
2022-12-17T01:48:41.718Z,100898.45
2022-12-17T01:51:09.833Z,100905.88
2022-12-17T01:53:46.799Z,100907.27
2022-12-17T01:56:15.922Z,100909.61
2022-12-17T01:58:44.963Z,100911.77
2022-12-17T02:01:13.269Z,100911.83
2022-12-17T02:03:41.632Z,100912.45
2022-12-17T02:06:12.861Z,100916.35
2022-12-17T02:08:53.360Z,100915.54
2022-12-17T02:11:55.683Z,100915.44
2022-12-17T02:14:45.574Z,100916.92
2022-12-17T02:17:19.628Z,100918.88
2022-12-17T02:20:17.076Z,100920.41
2022-12-17T02:23:10.415Z,100915.05
2022-12-17T02:26:04.203Z,100917.77
2022-12-17T02:28:34.471Z,100922.69
2022-12-17T02:31:03.052Z,100924.19
2022-12-17T02:33:32.058Z,100928.13
2022-12-17T02:36:05.414Z,100930.73
2022-12-17T02:38:34.532Z,100931.34
2022-12-17T02:41:05.381Z,100931.50
2022-12-17T02:43:35.489Z,100933.17
2022-12-17T02:46:06.272Z,100934.25
2022-12-17T02:48:37.618Z,100930.06
2022-12-17T02:51:06.129Z,100928.58
2022-12-17T02:53:35.080Z,100927.16
2022-12-17T02:56:03.423Z,100929.92
2022-12-17T02:58:31.574Z,100935.02
2022-12-17T03:00:59.648Z,100932.69
2022-12-17T03:03:27.969Z,100932.96
2022-12-17T03:05:56.113Z,100929.92
2022-12-17T03:08:24.172Z,100934.30
2022-12-17T03:10:52.213Z,100938.40
2022-12-17T03:13:28.947Z,100940.04
2022-12-17T03:16:08.580Z,100944.96
2022-12-17T03:18:37.064Z,100946.37
2022-12-17T03:21:06.059Z,100944.52
2022-12-17T03:23:34.380Z,100939.92
2022-12-17T03:26:04.491Z,100937.88
2022-12-17T03:28:32.678Z,100939.39
2022-12-17T03:31:01.104Z,100943.09
2022-12-17T03:33:29.405Z,100944.66
2022-12-17T03:35:57.984Z,100946.80
2022-12-17T03:38:26.198Z,100951.08
2022-12-17T03:40:55.095Z,100950.72
2022-12-17T03:43:23.418Z,100957.11
2022-12-17T03:45:55.196Z,100954.05
2022-12-17T03:48:23.388Z,100954.45
2022-12-17T03:50:52.847Z,100950.58
2022-12-17T03:53:20.799Z,100950.17
2022-12-17T03:55:49.760Z,100955.45
2022-12-17T03:58:17.843Z,100956.85
2022-12-17T04:00:46.108Z,100959.59
2022-12-17T04:03:14.178Z,100959.77
2022-12-17T04:05:42.990Z,100961.23
2022-12-17T04:08:10.996Z,100959.98
2022-12-17T04:10:39.168Z,100965.15
2022-12-17T04:13:07.122Z,100970.03
2022-12-17T04:15:35.179Z,100976.69
2022-12-17T04:18:03.513Z,100976.54
2022-12-17T04:20:31.543Z,100979.45
2022-12-17T04:22:59.628Z,100981.74
2022-12-17T04:25:28.034Z,100981.77
2022-12-17T04:27:55.978Z,100982.63
2022-12-17T04:30:23.910Z,100987.10
2022-12-17T04:32:52.037Z,100985.73
2022-12-17T04:35:20.254Z,100991.90
2022-12-17T04:37:48.716Z,100988.33
2022-12-17T04:40:16.838Z,100991.88
2022-12-17T04:42:44.947Z,100997.05
2022-12-17T04:45:12.942Z,101003.88
2022-12-17T04:47:41.124Z,101005.89
2022-12-17T04:50:09.123Z,101005.25
2022-12-17T04:52:37.254Z,101005.79
2022-12-17T04:55:06.031Z,101011.92
2022-12-17T04:57:34.010Z,101014.39
2022-12-17T05:00:01.919Z,101010.81
2022-12-17T05:02:30.090Z,101012.82
2022-12-17T05:04:58.451Z,101018.52
2022-12-17T05:07:26.650Z,101021.23
2022-12-17T05:09:54.855Z,101024.04
2022-12-17T05:12:23.064Z,101025.36
2022-12-17T05:14:51.197Z,101031.52
2022-12-17T05:17:19.552Z,101035.48
2022-12-17T05:19:47.482Z,101034.56
2022-12-17T05:22:15.448Z,101037.29
2022-12-17T05:24:44.003Z,101037.70
2022-12-17T05:27:12.057Z,101040.73
2022-12-17T05:29:40.401Z,101042.86
2022-12-17T05:32:08.446Z,101043.02
2022-12-17T05:34:37.263Z,101044.44
2022-12-17T05:37:05.306Z,101044.59
2022-12-17T05:39:33.447Z,101041.81
2022-12-17T05:42:01.542Z,101043.77
2022-12-17T05:44:29.527Z,101040.11
2022-12-17T05:46:58.465Z,101038.72
2022-12-17T05:49:26.869Z,101041.81
2022-12-17T05:51:55.530Z,101041.32
2022-12-17T05:54:23.779Z,101045.08
2022-12-17T05:56:52.315Z,101053.52
2022-12-17T05:59:20.233Z,101059.06
2022-12-17T06:01:48.837Z,101058.27
2022-12-17T06:04:17.300Z,101064.95
2022-12-17T06:06:45.385Z,101072.05
2022-12-17T06:09:13.539Z,101074.97
2022-12-17T06:11:41.622Z,101077.02
2022-12-17T06:14:09.769Z,101078.55
2022-12-17T06:16:38.288Z,101075.32
2022-12-17T06:19:06.463Z,101082.45
2022-12-17T06:21:34.819Z,101082.64
2022-12-17T06:24:02.890Z,101084.19
2022-12-17T06:26:31.009Z,101092.77
2022-12-17T06:28:59.333Z,101093.09
2022-12-17T06:31:28.067Z,101097.19
2022-12-17T06:33:58.818Z,101101.22
2022-12-17T06:36:26.952Z,101101.00
2022-12-17T06:38:55.242Z,101098.65
2022-12-17T06:41:23.446Z,101099.93
2022-12-17T06:43:51.669Z,101100.95
2022-12-17T06:46:19.845Z,101106.37
2022-12-17T06:48:47.883Z,101106.70
2022-12-17T06:51:15.960Z,101108.31
2022-12-17T06:53:44.412Z,101107.70
2022-12-17T06:56:12.728Z,101108.93
2022-12-17T06:58:40.826Z,101116.10
2022-12-17T07:01:08.934Z,101122.94
2022-12-17T07:03:37.543Z,101125.58
2022-12-17T07:06:05.979Z,101127.17
2022-12-17T07:08:34.066Z,101136.60
2022-12-17T07:11:02.978Z,101134.78
2022-12-17T07:13:31.244Z,101142.35
2022-12-17T07:15:59.832Z,101143.84
2022-12-17T07:18:27.980Z,101149.07
2022-12-17T07:20:55.916Z,101153.65
2022-12-17T07:23:24.102Z,101164.78
2022-12-17T07:25:52.374Z,101166.88
2022-12-17T07:28:20.496Z,101172.39
2022-12-17T07:30:54.155Z,101176.52
2022-12-17T07:33:23.707Z,101182.28
2022-12-17T07:35:56.096Z,101188.13
2022-12-17T07:38:24.107Z,101190.70
2022-12-17T07:40:52.086Z,101198.62
2022-12-17T07:43:20.101Z,101196.85
2022-12-17T07:45:48.241Z,101199.44
2022-12-17T07:48:16.386Z,101200.76
2022-12-17T07:50:49.056Z,101201.52
2022-12-17T07:53:17.185Z,101204.53
2022-12-17T07:55:45.348Z,101208.82
2022-12-17T07:58:13.455Z,101210.05
2022-12-17T08:00:46.015Z,101209.95
2022-12-17T08:03:17.810Z,101212.98
2022-12-17T08:05:45.913Z,101210.41
2022-12-17T08:08:14.650Z,101217.48
2022-12-17T08:10:43.724Z,101222.86
2022-12-17T08:13:14.209Z,101229.69
2022-12-17T08:15:43.961Z,101231.99
2022-12-17T08:18:12.289Z,101233.63
2022-12-17T08:20:40.288Z,101236.60
2022-12-17T08:23:08.333Z,101239.27
2022-12-17T08:25:36.407Z,101242.91
2022-12-17T08:28:10.910Z,101247.94
2022-12-17T08:30:48.526Z,101253.18
2022-12-17T08:33:16.657Z,101255.45
2022-12-17T08:35:51.936Z,101261.35
2022-12-17T08:38:19.888Z,101260.64
2022-12-17T08:40:48.156Z,101256.81
2022-12-17T08:43:16.272Z,101257.55
2022-12-17T08:45:49.102Z,101264.19
2022-12-17T08:48:17.277Z,101259.79
2022-12-17T08:50:45.356Z,101259.31
2022-12-17T08:53:13.503Z,101258.30
2022-12-17T08:55:41.616Z,101268.06
2022-12-17T08:58:09.644Z,101273.39
2022-12-17T09:00:37.766Z,101283.17
2022-12-17T09:03:05.867Z,101283.58
2022-12-17T09:05:33.960Z,101289.47
2022-12-17T09:08:04.762Z,101298.38
2022-12-17T09:10:32.949Z,101303.13
2022-12-17T09:13:05.287Z,101310.03
2022-12-17T09:15:34.187Z,101313.66
2022-12-17T09:18:02.189Z,101309.63
2022-12-17T09:20:30.313Z,101311.82
2022-12-17T09:22:58.815Z,101315.13
2022-12-17T09:25:26.838Z,101321.45
2022-12-17T09:27:55.029Z,101321.95
2022-12-17T09:30:23.230Z,101327.42
2022-12-17T09:32:51.419Z,101328.05
2022-12-17T09:35:19.808Z,101333.09
2022-12-17T09:37:55.362Z,101338.77
2022-12-17T09:40:24.970Z,101343.50
2022-12-17T09:43:02.162Z,101349.80
2022-12-17T09:45:56.519Z,101350.40
2022-12-17T09:48:36.136Z,101354.86
2022-12-17T09:51:05.167Z,101359.52
2022-12-17T09:53:42.809Z,101367.20
2022-12-17T09:56:14.061Z,101372.96
2022-12-17T09:58:42.093Z,101375.06
2022-12-17T10:01:25.100Z,101376.88
2022-12-17T10:03:53.349Z,101372.39
2022-12-17T10:06:29.030Z,101374.91
2022-12-17T10:09:00.788Z,101374.58
2022-12-17T10:11:34.533Z,101373.64
2022-12-17T10:14:11.390Z,101372.84
2022-12-17T10:16:46.382Z,101369.34
2022-12-17T10:19:36.907Z,101361.80
2022-12-17T10:22:14.396Z,101365.20
2022-12-17T10:24:45.947Z,101370.05
2022-12-17T10:27:20.291Z,101369.35
2022-12-17T10:29:49.095Z,101367.83
2022-12-17T10:32:17.214Z,101358.94
2022-12-17T10:34:47.300Z,101361.89
2022-12-17T10:37:20.149Z,101363.98
2022-12-17T10:39:59.572Z,101365.76
2022-12-17T10:42:34.507Z,101364.55
2022-12-17T10:45:19.539Z,101365.40
2022-12-17T10:47:47.542Z,101364.77
2022-12-17T10:50:17.332Z,101359.16
2022-12-17T10:52:47.011Z,101356.23
2022-12-17T10:55:23.174Z,101352.97
2022-12-17T10:57:52.887Z,101353.61
2022-12-17T11:00:28.908Z,101348.21
2022-12-17T11:02:57.581Z,101345.11
2022-12-17T11:05:30.576Z,101342.77
2022-12-17T11:08:01.027Z,101341.94
2022-12-17T11:10:32.169Z,101336.11
2022-12-17T11:13:05.427Z,101332.86
2022-12-17T11:15:45.218Z,101327.02
2022-12-17T11:18:19.755Z,101321.26
2022-12-17T11:20:58.919Z,101322.54
2022-12-17T11:23:28.118Z,101315.64
2022-12-17T11:26:02.900Z,101314.77
2022-12-17T11:28:35.218Z,101313.33
2022-12-17T11:31:13.661Z,101312.75
2022-12-17T11:33:57.697Z,101312.20
2022-12-17T11:36:45.806Z,101308.94
2022-12-17T11:39:24.668Z,101302.05
2022-12-17T11:42:16.777Z,101298.74
2022-12-17T11:45:23.662Z,101297.17
2022-12-17T11:48:01.261Z,101294.79
2022-12-17T11:50:42.057Z,101293.08
2022-12-17T11:53:27.695Z,101289.64
2022-12-17T11:56:20.998Z,101283.16
2022-12-17T11:58:55.865Z,101276.42
2022-12-17T12:01:35.097Z,101275.70
2022-12-17T12:04:36.001Z,101271.13
2022-12-17T12:07:20.027Z,101261.32
2022-12-17T12:09:58.026Z,101259.13
2022-12-17T12:12:41.360Z,101257.23
2022-12-17T12:15:39.710Z,101256.12
2022-12-17T12:18:20.230Z,101254.52
2022-12-17T12:21:20.115Z,101244.95
2022-12-17T12:23:59.974Z,101242.01
2022-12-17T12:26:43.144Z,101242.47
2022-12-17T12:29:23.975Z,101238.96
2022-12-17T12:32:06.260Z,101241.47
2022-12-17T12:34:38.335Z,101243.31
2022-12-17T12:37:08.075Z,101241.45
2022-12-17T12:39:48.178Z,101240.15
2022-12-17T12:42:42.231Z,101235.17
2022-12-17T12:45:21.472Z,101229.30
2022-12-17T12:47:59.549Z,101225.42
2022-12-17T12:50:43.297Z,101228.34
2022-12-17T12:53:13.069Z,101231.20
2022-12-17T12:55:43.513Z,101233.55
2022-12-17T12:58:27.658Z,101234.16
2022-12-17T13:00:56.256Z,101240.54
2022-12-17T13:03:30.547Z,101237.13
2022-12-17T13:06:01.054Z,101238.89
2022-12-17T13:08:29.053Z,101240.17
2022-12-17T13:10:57.555Z,101237.81
2022-12-17T13:13:40.079Z,101234.75
2022-12-17T13:16:42.335Z,101236.72
2022-12-17T13:19:39.332Z,101240.14
2022-12-17T13:22:23.328Z,101238.06
2022-12-17T13:24:55.083Z,101238.67
2022-12-17T13:27:35.160Z,101240.31
2022-12-17T13:30:18.461Z,101236.30
2022-12-17T13:33:16.143Z,101238.05
2022-12-17T13:36:09.373Z,101233.57
2022-12-17T13:39:03.761Z,101232.76
2022-12-17T13:41:35.190Z,101229.27
2022-12-17T13:44:17.620Z,101228.69
2022-12-17T13:46:48.292Z,101234.63
2022-12-17T13:49:21.310Z,101238.02
2022-12-17T13:52:06.489Z,101240.36
2022-12-17T13:54:38.062Z,101241.94
2022-12-17T13:57:11.372Z,101241.68
2022-12-17T13:59:40.201Z,101245.13
2022-12-17T14:02:27.669Z,101247.16
2022-12-17T14:05:01.711Z,101248.47
2022-12-17T14:07:38.330Z,101259.98
2022-12-17T14:10:16.398Z,101254.35
2022-12-17T14:12:45.343Z,101262.69
2022-12-17T14:15:32.675Z,101266.04
2022-12-17T14:18:02.577Z,101267.08
2022-12-17T14:20:34.185Z,101272.70
2022-12-17T14:23:22.561Z,101277.95
2022-12-17T14:25:51.272Z,101284.80
2022-12-17T14:28:38.253Z,101291.74
2022-12-17T14:31:26.725Z,101304.00
2022-12-17T14:34:04.514Z,101312.19
2022-12-17T14:36:34.753Z,101314.94
2022-12-17T14:39:06.726Z,101317.20
2022-12-17T14:41:39.141Z,101318.80
2022-12-17T14:44:18.494Z,101321.94
2022-12-17T14:47:14.328Z,101327.27
2022-12-17T14:49:58.668Z,101330.52
2022-12-17T14:52:39.043Z,101332.86
2022-12-17T14:55:52.056Z,101331.41
2022-12-17T14:58:27.399Z,101335.34
2022-12-17T15:01:10.122Z,101338.81
2022-12-17T15:03:42.312Z,101341.80
2022-12-17T15:06:13.510Z,101341.65
2022-12-17T15:08:47.236Z,101346.27
2022-12-17T15:11:18.627Z,101351.52
2022-12-17T15:13:49.190Z,101351.52
2022-12-17T15:16:21.306Z,101351.60
2022-12-17T15:18:49.372Z,101352.41
2022-12-17T15:21:19.482Z,101357.38
2022-12-17T15:23:48.217Z,101363.81
2022-12-17T15:26:16.323Z,101367.41
2022-12-17T15:28:44.833Z,101370.06
2022-12-17T15:31:17.822Z,101372.39
2022-12-17T15:33:48.760Z,101371.66
2022-12-17T15:36:17.243Z,101375.94
2022-12-17T15:38:45.267Z,101377.87
2022-12-17T15:41:13.255Z,101381.94
2022-12-17T15:43:41.496Z,101384.25
2022-12-17T15:46:09.661Z,101388.77
2022-12-17T15:48:38.070Z,101388.82
2022-12-17T15:51:06.672Z,101388.94
2022-12-17T15:53:35.097Z,101395.54
2022-12-17T15:56:03.913Z,101404.50
2022-12-17T15:58:32.168Z,101410.39
2022-12-17T16:01:00.295Z,101413.56
2022-12-17T16:03:28.466Z,101413.04
2022-12-17T16:05:56.841Z,101424.82
2022-12-17T16:08:24.808Z,101428.08
2022-12-17T16:10:52.836Z,101431.52
2022-12-17T16:13:20.983Z,101427.22
2022-12-17T16:16:03.682Z,101432.86
2022-12-17T16:18:32.830Z,101440.08
2022-12-17T16:21:06.129Z,101444.09
2022-12-17T16:23:35.352Z,101448.77
2022-12-17T16:26:05.635Z,101452.34
2022-12-17T16:28:35.678Z,101455.26
2022-12-17T16:31:09.563Z,101462.06
2022-12-17T16:33:41.203Z,101465.40
2022-12-17T16:36:12.949Z,101471.51
2022-12-17T16:38:50.767Z,101474.90
2022-12-17T16:41:20.473Z,101479.91
2022-12-17T16:43:48.973Z,101481.29
2022-12-17T16:46:33.059Z,101484.61
2022-12-17T16:49:16.453Z,101490.84
2022-12-17T16:51:46.989Z,101491.90
2022-12-17T16:54:17.869Z,101501.05
2022-12-17T16:56:47.805Z,101499.52
2022-12-17T16:59:17.086Z,101499.96
2022-12-17T17:01:48.343Z,101503.03
2022-12-17T17:04:18.915Z,101511.92
2022-12-17T17:06:57.611Z,101518.03
2022-12-17T17:09:26.375Z,101517.94
2022-12-17T17:11:58.226Z,101522.88
2022-12-17T17:14:26.811Z,101524.93
2022-12-17T17:16:54.815Z,101527.89
2022-12-17T17:19:23.195Z,101536.52
2022-12-17T17:21:53.766Z,101535.58
2022-12-17T17:24:23.967Z,101539.48
2022-12-17T17:26:53.101Z,101543.70
2022-12-17T17:29:21.431Z,101552.20
2022-12-17T17:34:38.789Z,101563.81
2022-12-17T17:37:07.403Z,101562.27
2022-12-17T17:39:36.049Z,101558.35
2022-12-17T17:42:04.697Z,101561.77
2022-12-17T17:44:32.878Z,101570.62
2022-12-17T17:47:01.430Z,101577.31
2022-12-17T17:49:29.482Z,101585.22
2022-12-17T17:52:13.319Z,101591.50
2022-12-17T17:54:41.512Z,101600.18
2022-12-17T17:57:11.257Z,101606.61
2022-12-17T17:59:39.446Z,101614.27
2022-12-17T18:02:10.156Z,101620.78
2022-12-17T18:04:38.527Z,101624.08
2022-12-17T18:07:24.708Z,101621.58
2022-12-17T18:09:54.678Z,101623.00
2022-12-17T18:12:22.938Z,101623.02
2022-12-17T18:15:13.797Z,101623.98
2022-12-17T18:17:39.240Z,101626.67
2022-12-17T18:20:07.842Z,101624.19
2022-12-17T18:22:35.981Z,101625.70
2022-12-17T18:25:05.434Z,101622.59
2022-12-17T18:27:33.467Z,101619.42
2022-12-17T18:30:01.722Z,101622.93
2022-12-17T18:32:29.936Z,101623.56
2022-12-17T18:34:58.069Z,101633.39
2022-12-17T18:37:26.292Z,101636.76
2022-12-17T18:39:54.433Z,101640.43
2022-12-17T18:42:22.489Z,101651.50
2022-12-17T18:44:50.652Z,101649.68
2022-12-17T18:47:18.939Z,101658.21
2022-12-17T18:49:47.235Z,101666.14
2022-12-17T18:52:17.392Z,101674.93
2022-12-17T18:54:45.779Z,101681.27
2022-12-17T18:57:13.937Z,101680.98
2022-12-17T18:59:42.260Z,101684.77
2022-12-17T19:02:12.392Z,101686.02
2022-12-17T19:04:41.321Z,101691.77
2022-12-17T19:07:10.068Z,101691.13
2022-12-17T19:09:38.967Z,101696.69
2022-12-17T19:12:08.824Z,101699.59
2022-12-17T19:14:37.296Z,101709.52
2022-12-17T19:17:05.460Z,101714.73
2022-12-17T19:19:34.171Z,101719.52
2022-12-17T19:22:02.396Z,101711.35
2022-12-17T19:24:30.671Z,101707.34
2022-12-17T19:26:58.654Z,101712.21
2022-12-17T19:29:26.967Z,101715.39
2022-12-17T19:31:55.267Z,101717.58
2022-12-17T19:34:23.703Z,101719.69
2022-12-17T19:36:51.752Z,101723.46
2022-12-17T19:39:20.502Z,101722.67
2022-12-17T19:41:49.935Z,101719.85
2022-12-17T19:44:18.938Z,101723.81
2022-12-17T19:46:49.109Z,101717.83
2022-12-17T19:49:17.439Z,101722.52
2022-12-17T19:51:45.647Z,101726.10
2022-12-17T19:54:14.755Z,101728.73
2022-12-17T19:56:45.130Z,101729.27
2022-12-17T19:59:14.563Z,101729.42
2022-12-17T20:01:44.904Z,101733.48
2022-12-17T20:04:15.554Z,101740.50
2022-12-17T20:06:45.410Z,101742.15
2022-12-17T20:09:13.880Z,101741.69
2022-12-17T20:11:42.559Z,101746.89
2022-12-17T20:14:19.804Z,101747.13
2022-12-17T20:16:54.847Z,101748.92
2022-12-17T20:19:26.055Z,101751.91
2022-12-17T20:21:54.959Z,101750.98
2022-12-17T20:24:30.356Z,101751.13
2022-12-17T20:27:01.184Z,101757.54
2022-12-17T20:29:29.603Z,101756.09
2022-12-17T20:31:57.791Z,101753.83
2022-12-17T20:34:25.998Z,101757.98
2022-12-17T20:36:54.215Z,101760.03
2022-12-17T20:39:27.093Z,101759.81
2022-12-17T20:41:57.108Z,101767.49
2022-12-17T20:44:25.929Z,101774.55
2022-12-17T20:46:54.007Z,101779.11
2022-12-17T20:49:22.494Z,101784.66
2022-12-17T20:51:50.806Z,101788.69
2022-12-17T20:54:18.888Z,101782.09
2022-12-17T20:56:47.197Z,101784.29
2022-12-17T20:59:17.741Z,101791.90
2022-12-17T21:01:50.364Z,101793.62
2022-12-17T21:04:20.010Z,101792.16
2022-12-17T21:06:48.475Z,101791.20
2022-12-17T21:09:17.488Z,101795.73
2022-12-17T21:11:46.204Z,101798.19
2022-12-17T21:14:16.877Z,101802.13
2022-12-17T21:16:45.771Z,101799.52
2022-12-17T21:19:16.861Z,101799.73
2022-12-17T21:21:45.430Z,101797.84
2022-12-17T21:24:13.763Z,101800.48
2022-12-17T21:26:43.935Z,101808.66
2022-12-17T21:29:12.103Z,101808.79
2022-12-17T21:31:46.951Z,101811.40
2022-12-17T21:34:21.494Z,101811.98
2022-12-17T21:36:50.366Z,101820.01
2022-12-17T21:39:19.584Z,101820.55
2022-12-17T21:41:48.257Z,101820.97
2022-12-17T21:44:16.636Z,101822.41
2022-12-17T21:46:50.118Z,101817.11
2022-12-17T21:49:18.985Z,101821.78
2022-12-17T21:51:47.411Z,101828.27
2022-12-17T21:54:19.614Z,101827.70
2022-12-17T21:56:49.408Z,101827.30
2022-12-17T21:59:18.099Z,101830.89
2022-12-17T22:01:46.252Z,101829.77
2022-12-17T22:04:14.935Z,101829.13
2022-12-17T22:06:46.280Z,101830.00
2022-12-17T22:09:18.367Z,101832.55
2022-12-17T22:11:51.042Z,101834.75
2022-12-17T22:14:21.303Z,101841.50
2022-12-17T22:16:49.898Z,101841.23
2022-12-17T22:19:22.457Z,101844.49
2022-12-17T22:21:55.405Z,101844.86
2022-12-17T22:24:26.810Z,101843.52
2022-12-17T22:26:57.788Z,101847.21
2022-12-17T22:29:27.667Z,101849.47
2022-12-17T22:31:55.738Z,101855.16
2022-12-17T22:35:24.288Z,101864.45
2022-12-17T22:40:26.891Z,101862.43
2022-12-17T22:44:29.144Z,101868.30
2022-12-17T22:44:46.140Z,101873.58
2022-12-17T22:45:39.531Z,101872.66
2022-12-17T22:48:09.684Z,101873.36
2022-12-17T22:50:59.715Z,101873.84
2022-12-17T22:53:26.401Z,101877.21
2022-12-17T22:55:54.690Z,101883.31
2022-12-17T22:58:23.596Z,101886.82
2022-12-17T23:00:51.585Z,101893.82
2022-12-17T23:03:19.750Z,101903.07
2022-12-17T23:05:47.987Z,101906.31
2022-12-17T23:08:16.275Z,101909.52
